createdAt,value
2023-05-21T00:00:25.372Z,48.05
2023-05-21T00:00:57.773Z,47.75
2023-05-21T00:01:32.771Z,47.96
2023-05-21T00:02:05.550Z,47.83
2023-05-21T00:02:38.092Z,47.90
2023-05-21T00:03:14.300Z,47.84
2023-05-21T00:03:46.981Z,47.75
2023-05-21T00:04:19.578Z,47.97
2023-05-21T00:04:54.623Z,48.22
2023-05-21T00:05:27.051Z,48.23
2023-05-21T00:06:01.779Z,47.92
2023-05-21T00:06:37.186Z,47.93
2023-05-21T00:07:09.785Z,47.94
2023-05-21T00:07:42.182Z,48.09
2023-05-21T00:08:17.191Z,47.94
2023-05-21T00:08:49.542Z,47.97
2023-05-21T00:09:21.917Z,48.20
2023-05-21T00:09:56.963Z,47.84
2023-05-21T00:10:29.325Z,47.89
2023-05-21T00:11:04.321Z,47.80
2023-05-21T00:11:36.758Z,47.90
2023-05-21T00:12:09.762Z,47.69
2023-05-21T00:12:44.716Z,47.67
2023-05-21T00:13:17.088Z,47.81
2023-05-21T00:13:49.439Z,47.88
2023-05-21T00:14:24.446Z,47.87
2023-05-21T00:14:59.909Z,48.09
2023-05-21T00:15:32.321Z,48.11
2023-05-21T00:16:07.794Z,47.84
2023-05-21T00:16:40.258Z,47.62
2023-05-21T00:17:12.616Z,48.04
2023-05-21T00:17:47.613Z,48.04
2023-05-21T00:18:20.057Z,47.84
2023-05-21T00:18:54.683Z,48.12
2023-05-21T00:19:30.101Z,47.85
2023-05-21T00:20:04.972Z,47.97
2023-05-21T00:20:37.429Z,48.16
2023-05-21T00:21:12.455Z,47.68
2023-05-21T00:21:46.222Z,47.56
2023-05-21T00:22:18.708Z,47.77
2023-05-21T00:22:53.787Z,47.97
2023-05-21T00:23:26.546Z,47.98
2023-05-21T00:23:59.048Z,47.96
2023-05-21T00:24:34.026Z,47.60
2023-05-21T00:25:07.347Z,47.65
2023-05-21T00:25:42.335Z,47.63
2023-05-21T00:26:14.736Z,48.04
2023-05-21T00:26:47.807Z,47.81
2023-05-21T00:27:20.397Z,47.81
2023-05-21T00:27:55.375Z,47.75
2023-05-21T00:28:27.808Z,48.05
2023-05-21T00:29:00.257Z,47.83
2023-05-21T00:29:35.258Z,47.83
2023-05-21T00:30:11.441Z,47.80
2023-05-21T00:30:44.053Z,47.78
2023-05-21T00:31:19.319Z,47.83
2023-05-21T00:31:52.456Z,47.80
2023-05-21T00:32:25.012Z,48.04
2023-05-21T00:33:03.078Z,47.82
2023-05-21T00:33:35.542Z,47.66
2023-05-21T00:34:08.030Z,47.82
2023-05-21T00:34:43.126Z,47.68
2023-05-21T00:35:16.605Z,48.01
2023-05-21T00:35:49.004Z,47.83
2023-05-21T00:36:24.453Z,47.97
2023-05-21T00:36:57.510Z,48.09
2023-05-21T00:37:34.526Z,48.01
2023-05-21T00:38:09.775Z,47.68
2023-05-21T00:38:43.846Z,47.61
2023-05-21T00:39:16.390Z,47.89
2023-05-21T00:39:48.752Z,47.77
2023-05-21T00:40:24.037Z,47.75
2023-05-21T00:40:56.470Z,48.02
2023-05-21T00:41:30.391Z,48.00
2023-05-21T00:42:05.487Z,47.63
2023-05-21T00:42:40.823Z,47.80
2023-05-21T00:43:14.456Z,47.68
2023-05-21T00:43:49.512Z,47.61
2023-05-21T00:44:22.305Z,47.66
2023-05-21T00:44:54.682Z,47.62
2023-05-21T00:45:32.291Z,47.68
2023-05-21T00:46:04.795Z,47.58
2023-05-21T00:46:37.195Z,47.87
2023-05-21T00:47:12.226Z,47.68
2023-05-21T00:47:45.116Z,47.88
2023-05-21T00:48:17.534Z,47.66
2023-05-21T00:48:52.966Z,47.88
2023-05-21T00:49:26.188Z,47.63
2023-05-21T00:49:58.657Z,47.82
2023-05-21T00:50:33.915Z,47.71
2023-05-21T00:51:07.029Z,47.92
2023-05-21T00:51:39.442Z,47.76
2023-05-21T00:52:14.454Z,48.08
2023-05-21T00:52:47.149Z,47.89
2023-05-21T00:53:19.950Z,48.19
2023-05-21T00:53:56.182Z,48.10
2023-05-21T00:54:28.876Z,47.94
2023-05-21T00:55:01.267Z,47.97
2023-05-21T00:55:36.374Z,47.75
2023-05-21T00:56:09.006Z,47.74
2023-05-21T00:56:41.744Z,48.13
2023-05-21T00:57:17.818Z,47.73
2023-05-21T00:57:50.259Z,47.75
2023-05-21T00:58:22.967Z,47.79
2023-05-21T00:58:57.409Z,47.74
2023-05-21T00:59:32.364Z,47.95
2023-05-21T01:00:09.167Z,47.96
2023-05-21T01:00:44.582Z,47.83
2023-05-21T01:01:19.647Z,48.25
2023-05-21T01:01:56.573Z,48.00
2023-05-21T01:02:29.065Z,47.95
2023-05-21T01:03:04.706Z,47.89
2023-05-21T01:03:38.906Z,47.75
2023-05-21T01:04:12.482Z,48.29
2023-05-21T01:04:47.600Z,48.12
2023-05-21T01:05:20.016Z,48.02
2023-05-21T01:05:53.685Z,47.79
2023-05-21T01:06:28.761Z,48.20
2023-05-21T01:07:02.200Z,48.23
2023-05-21T01:07:35.302Z,48.22
2023-05-21T01:08:07.978Z,48.26
2023-05-21T01:08:44.355Z,48.36
2023-05-21T01:09:16.813Z,47.91
2023-05-21T01:09:49.210Z,48.31
2023-05-21T01:10:24.253Z,48.09
2023-05-21T01:10:57.567Z,48.03
2023-05-21T01:11:37.687Z,48.33
2023-05-21T01:12:13.010Z,48.40
2023-05-21T01:12:46.720Z,47.95
2023-05-21T01:13:20.840Z,48.38
2023-05-21T01:13:55.875Z,48.40
2023-05-21T01:14:28.362Z,48.21
2023-05-21T01:15:01.266Z,48.17
2023-05-21T01:15:38.105Z,48.42
2023-05-21T01:16:13.842Z,48.02
2023-05-21T01:16:49.570Z,48.40
2023-05-21T01:17:25.473Z,48.51
2023-05-21T01:17:57.960Z,48.12
2023-05-21T01:18:30.407Z,48.12
2023-05-21T01:19:03.665Z,47.93
2023-05-21T01:19:39.220Z,48.34
2023-05-21T01:20:12.181Z,48.45
2023-05-21T01:20:48.357Z,48.23
2023-05-21T01:21:24.596Z,48.23
2023-05-21T01:22:01.094Z,48.38
2023-05-21T01:22:36.070Z,48.06
2023-05-21T01:23:14.046Z,47.95
2023-05-21T01:23:46.542Z,48.32
2023-05-21T01:24:19.245Z,48.23
2023-05-21T01:24:51.788Z,48.17
2023-05-21T01:25:27.635Z,48.38
2023-05-21T01:26:00.066Z,48.33
2023-05-21T01:26:33.899Z,48.33
2023-05-21T01:27:10.738Z,48.04
2023-05-21T01:27:43.154Z,47.91
2023-05-21T01:28:15.571Z,47.92
2023-05-21T01:28:51.857Z,48.12
2023-05-21T01:29:24.247Z,48.33
2023-05-21T01:29:57.178Z,48.09
2023-05-21T01:30:32.166Z,48.18
2023-05-21T01:31:15.292Z,48.12
2023-05-21T01:31:57.421Z,47.89
2023-05-21T01:32:37.104Z,48.27
2023-05-21T01:33:15.424Z,48.11
2023-05-21T01:33:49.813Z,47.81
2023-05-21T01:34:28.842Z,48.04
2023-05-21T01:35:05.101Z,48.02
2023-05-21T01:35:43.217Z,48.07
2023-05-21T01:36:21.990Z,48.00
2023-05-21T01:37:12.009Z,47.88
2023-05-21T01:37:46.963Z,47.97
2023-05-21T01:38:25.939Z,48.07
2023-05-21T01:39:04.488Z,48.11
2023-05-21T01:39:39.500Z,47.90
2023-05-21T01:40:15.251Z,47.70
2023-05-21T01:40:55.029Z,47.96
2023-05-21T01:41:28.200Z,47.92
2023-05-21T01:42:01.229Z,47.98
2023-05-21T01:42:38.149Z,48.02
2023-05-21T01:43:11.133Z,47.90
2023-05-21T01:43:46.154Z,47.92
2023-05-21T01:44:22.183Z,48.15
2023-05-21T01:44:56.362Z,48.13
2023-05-21T01:45:30.309Z,47.93
2023-05-21T01:46:05.796Z,48.09
2023-05-21T01:46:39.225Z,47.71
2023-05-21T01:47:12.442Z,47.73
2023-05-21T01:47:50.928Z,47.79
2023-05-21T01:48:24.683Z,47.90
2023-05-21T01:48:57.952Z,47.75
2023-05-21T01:49:33.679Z,47.88
2023-05-21T01:50:07.571Z,47.68
2023-05-21T01:50:41.451Z,48.12
2023-05-21T01:51:16.681Z,48.03
2023-05-21T01:51:49.319Z,47.82
2023-05-21T01:52:21.765Z,47.76
2023-05-21T01:52:58.742Z,47.88
2023-05-21T01:53:33.723Z,47.63
2023-05-21T01:54:06.257Z,48.01
2023-05-21T01:54:41.244Z,48.04
2023-05-21T01:55:13.819Z,47.71
2023-05-21T01:55:46.255Z,47.85
2023-05-21T01:56:25.999Z,47.84
2023-05-21T01:56:58.520Z,47.66
2023-05-21T01:57:30.941Z,47.64
2023-05-21T01:58:06.213Z,47.97
2023-05-21T01:58:38.707Z,47.62
2023-05-21T01:59:11.773Z,47.80
2023-05-21T01:59:48.026Z,48.00
2023-05-21T02:00:21.173Z,47.58
2023-05-21T02:00:53.616Z,47.79
2023-05-21T02:01:30.614Z,48.07
2023-05-21T02:02:03.150Z,47.86
2023-05-21T02:02:35.602Z,48.11
2023-05-21T02:03:10.997Z,48.20
2023-05-21T02:03:43.613Z,48.02
2023-05-21T02:04:16.220Z,47.82
2023-05-21T02:04:51.766Z,48.07
2023-05-21T02:05:24.429Z,47.85
2023-05-21T02:05:56.800Z,47.88
2023-05-21T02:06:31.986Z,48.01
2023-05-21T02:07:04.628Z,48.12
2023-05-21T02:07:37.794Z,47.65
2023-05-21T02:08:13.092Z,47.79
2023-05-21T02:08:48.611Z,48.12
2023-05-21T02:09:21.032Z,47.96
2023-05-21T02:09:56.076Z,47.80
2023-05-21T02:10:28.495Z,47.68
2023-05-21T02:11:00.902Z,47.77
2023-05-21T02:11:35.946Z,47.73
2023-05-21T02:12:08.916Z,47.96
2023-05-21T02:12:41.302Z,47.82
2023-05-21T02:13:20.943Z,48.16
2023-05-21T02:13:54.683Z,47.95
2023-05-21T02:14:27.052Z,48.14
2023-05-21T02:15:03.094Z,47.80
2023-05-21T02:15:35.805Z,48.15
2023-05-21T02:16:11.900Z,48.17
2023-05-21T02:16:47.406Z,47.86
2023-05-21T02:17:19.866Z,47.98
2023-05-21T02:17:52.266Z,48.13
2023-05-21T02:18:29.502Z,48.15
2023-05-21T02:19:04.489Z,48.20
2023-05-21T02:19:39.480Z,47.78
2023-05-21T02:20:12.809Z,47.73
2023-05-21T02:20:46.412Z,47.92
2023-05-21T02:21:21.376Z,48.02
2023-05-21T02:21:54.020Z,48.22
2023-05-21T02:22:26.376Z,47.66
2023-05-21T02:23:01.525Z,48.14
2023-05-21T02:23:33.978Z,47.76
2023-05-21T02:24:09.070Z,48.16
2023-05-21T02:24:44.062Z,47.73
2023-05-21T02:25:18.505Z,48.12
2023-05-21T02:25:51.049Z,47.95
2023-05-21T02:26:26.079Z,47.80
2023-05-21T02:26:59.040Z,47.77
2023-05-21T02:27:32.694Z,48.20
2023-05-21T02:28:08.255Z,48.17
2023-05-21T02:28:41.052Z,47.96
2023-05-21T02:29:13.521Z,47.82
2023-05-21T02:29:46.068Z,47.80
2023-05-21T02:30:21.348Z,47.87
2023-05-21T02:30:53.736Z,48.22
2023-05-21T02:31:26.258Z,48.05
2023-05-21T02:32:01.322Z,47.68
2023-05-21T02:32:34.255Z,47.81
2023-05-21T02:33:09.407Z,48.18
2023-05-21T02:33:45.119Z,47.92
2023-05-21T02:34:17.835Z,47.92
2023-05-21T02:34:50.355Z,48.00
2023-05-21T02:35:25.346Z,48.03
2023-05-21T02:35:57.922Z,47.78
2023-05-21T02:36:33.510Z,48.09
2023-05-21T02:37:09.914Z,48.01
2023-05-21T02:37:44.485Z,47.98
2023-05-21T02:38:19.669Z,48.02
2023-05-21T02:38:54.880Z,48.04
2023-05-21T02:39:30.169Z,48.00
2023-05-21T02:40:04.410Z,48.00
2023-05-21T02:40:39.562Z,48.18
2023-05-21T02:41:12.011Z,47.85
2023-05-21T02:41:45.628Z,47.94
2023-05-21T02:42:20.620Z,48.03
2023-05-21T02:42:53.025Z,47.80
2023-05-21T02:43:29.476Z,48.21
2023-05-21T02:44:01.865Z,47.86
2023-05-21T02:44:34.261Z,47.91
2023-05-21T02:45:11.220Z,48.24
2023-05-21T02:45:45.242Z,48.05
2023-05-21T02:46:17.695Z,48.07
2023-05-21T02:46:50.171Z,48.06
2023-05-21T02:47:26.645Z,48.32
2023-05-21T02:47:59.391Z,48.10
2023-05-21T02:48:31.892Z,47.88
2023-05-21T02:49:06.921Z,48.04
2023-05-21T02:49:39.373Z,48.13
2023-05-21T02:50:14.840Z,48.09
2023-05-21T02:50:58.426Z,48.13
2023-05-21T02:51:30.963Z,48.04
2023-05-21T02:52:03.362Z,48.04
2023-05-21T02:52:38.492Z,48.33
2023-05-21T02:53:11.213Z,48.07
2023-05-21T02:53:43.687Z,47.84
2023-05-21T02:54:18.731Z,48.06
2023-05-21T02:54:53.829Z,48.12
2023-05-21T02:55:26.446Z,47.96
2023-05-21T02:56:01.424Z,47.83
2023-05-21T02:56:33.792Z,47.87
2023-05-21T02:57:06.896Z,47.91
2023-05-21T02:57:41.842Z,48.26
2023-05-21T02:58:15.225Z,48.21
2023-05-21T02:58:50.378Z,48.31
2023-05-21T02:59:22.836Z,48.10
2023-05-21T02:59:55.922Z,48.07
2023-05-21T03:00:31.680Z,48.05
2023-05-21T03:01:05.780Z,48.21
2023-05-21T03:01:38.258Z,48.08
2023-05-21T03:02:13.512Z,47.88
2023-05-21T03:02:46.069Z,47.75
2023-05-21T03:03:18.756Z,47.71
2023-05-21T03:03:53.847Z,47.71
2023-05-21T03:04:28.598Z,47.98
2023-05-21T03:05:01.469Z,48.19
2023-05-21T03:05:36.763Z,48.31
2023-05-21T03:06:10.351Z,48.04
2023-05-21T03:06:42.712Z,47.79
2023-05-21T03:07:19.302Z,48.26
2023-05-21T03:07:51.803Z,48.03
2023-05-21T03:08:24.983Z,48.05
2023-05-21T03:09:00.395Z,47.83
2023-05-21T03:09:32.813Z,48.09
2023-05-21T03:10:08.948Z,47.94
2023-05-21T03:10:44.012Z,48.11
2023-05-21T03:11:16.456Z,48.20
2023-05-21T03:11:48.986Z,47.74
2023-05-21T03:12:24.051Z,48.24
2023-05-21T03:12:56.467Z,48.09
2023-05-21T03:13:29.080Z,48.12
2023-05-21T03:14:04.270Z,47.73
2023-05-21T03:14:38.213Z,47.88
2023-05-21T03:15:11.678Z,47.91
2023-05-21T03:15:44.297Z,48.09
2023-05-21T03:16:19.881Z,47.75
2023-05-21T03:16:53.445Z,48.05
2023-05-21T03:17:25.927Z,48.11
2023-05-21T03:18:01.957Z,47.92
2023-05-21T03:18:34.504Z,47.95
2023-05-21T03:19:07.036Z,47.77
2023-05-21T03:19:42.090Z,47.90
2023-05-21T03:20:17.289Z,47.86
2023-05-21T03:20:49.765Z,47.70
2023-05-21T03:21:25.033Z,47.96
2023-05-21T03:21:57.449Z,47.95
2023-05-21T03:22:29.830Z,47.95
2023-05-21T03:23:05.297Z,48.09
2023-05-21T03:23:37.697Z,48.04
2023-05-21T03:24:10.157Z,47.71
2023-05-21T03:24:45.535Z,47.70
2023-05-21T03:25:21.883Z,47.88
2023-05-21T03:25:54.466Z,48.08
2023-05-21T03:26:30.392Z,48.09
2023-05-21T03:27:06.656Z,47.72
2023-05-21T03:27:39.466Z,47.60
2023-05-21T03:28:21.530Z,48.02
2023-05-21T03:28:55.447Z,48.07
2023-05-21T03:29:28.672Z,48.00
2023-05-21T03:30:06.584Z,48.07
2023-05-21T03:30:46.644Z,47.89
2023-05-21T03:31:44.600Z,47.79
2023-05-21T03:32:19.056Z,48.02
2023-05-21T03:32:53.742Z,47.78
2023-05-21T03:33:28.805Z,47.70
2023-05-21T03:34:01.532Z,47.88
2023-05-21T03:34:38.917Z,48.04
2023-05-21T03:35:11.571Z,47.64
2023-05-21T03:35:43.950Z,47.66
2023-05-21T03:36:19.213Z,47.60
2023-05-21T03:36:51.597Z,47.78
2023-05-21T03:37:24.613Z,47.74
2023-05-21T03:37:59.645Z,47.65
2023-05-21T03:38:32.068Z,47.84
2023-05-21T03:39:04.651Z,47.85
2023-05-21T03:39:39.142Z,47.81
2023-05-21T03:40:15.957Z,47.85
2023-05-21T03:40:52.355Z,47.56
2023-05-21T03:41:27.639Z,48.03
2023-05-21T03:42:06.360Z,47.69
2023-05-21T03:42:45.804Z,47.99
2023-05-21T03:43:21.184Z,47.97
2023-05-21T03:43:53.698Z,47.60
2023-05-21T03:44:28.724Z,47.50
2023-05-21T03:45:10.446Z,47.59
2023-05-21T03:46:02.727Z,47.47
2023-05-21T03:46:56.040Z,47.98
2023-05-21T03:47:34.418Z,47.95
2023-05-21T03:48:07.320Z,47.51
2023-05-21T03:48:42.376Z,47.73
2023-05-21T03:49:17.690Z,47.97
2023-05-21T03:49:52.898Z,47.52
2023-05-21T03:50:25.275Z,47.44
2023-05-21T03:50:57.802Z,47.92
2023-05-21T03:51:33.262Z,47.93
2023-05-21T03:52:06.127Z,47.49
2023-05-21T03:52:38.617Z,47.90
2023-05-21T03:53:14.125Z,47.55
2023-05-21T03:53:46.910Z,47.95
2023-05-21T03:54:19.650Z,47.56
2023-05-21T03:54:55.250Z,47.92
2023-05-21T03:55:27.635Z,47.78
2023-05-21T03:56:02.640Z,47.78
2023-05-21T03:56:39.284Z,47.61
2023-05-21T03:57:11.787Z,47.72
2023-05-21T03:57:44.253Z,47.79
2023-05-21T03:58:19.317Z,47.77
2023-05-21T03:58:52.934Z,48.00
2023-05-21T03:59:25.334Z,47.61
2023-05-21T04:00:01.107Z,47.54
2023-05-21T04:00:34.758Z,47.59
2023-05-21T04:01:09.013Z,47.95
2023-05-21T04:01:45.540Z,47.79
2023-05-21T04:02:21.913Z,48.04
2023-05-21T04:02:54.708Z,47.91
2023-05-21T04:03:29.943Z,47.86
2023-05-21T04:04:03.647Z,47.84
2023-05-21T04:04:37.337Z,47.54
2023-05-21T04:05:13.011Z,48.05
2023-05-21T04:05:45.491Z,47.80
2023-05-21T04:06:19.253Z,47.59
2023-05-21T04:06:54.771Z,47.85
2023-05-21T04:07:30.244Z,48.09
2023-05-21T04:08:02.703Z,47.63
2023-05-21T04:08:38.159Z,47.93
2023-05-21T04:09:10.597Z,47.99
2023-05-21T04:09:43.040Z,48.02
2023-05-21T04:10:18.226Z,48.05
2023-05-21T04:10:50.628Z,47.67
2023-05-21T04:11:26.389Z,47.64
2023-05-21T04:12:01.414Z,47.81
2023-05-21T04:12:33.846Z,47.66
2023-05-21T04:13:06.721Z,47.68
2023-05-21T04:13:41.830Z,47.66
2023-05-21T04:14:14.273Z,48.07
2023-05-21T04:14:46.787Z,47.87
2023-05-21T04:15:21.762Z,48.07
2023-05-21T04:15:55.155Z,48.16
2023-05-21T04:16:27.682Z,47.70
2023-05-21T04:17:04.878Z,47.73
2023-05-21T04:17:37.299Z,48.15
2023-05-21T04:18:11.128Z,48.31
2023-05-21T04:18:46.207Z,47.77
2023-05-21T04:19:21.817Z,48.01
2023-05-21T04:19:55.177Z,47.70
2023-05-21T04:20:30.202Z,48.13
2023-05-21T04:21:02.738Z,47.97
2023-05-21T04:21:35.162Z,47.95
2023-05-21T04:22:12.815Z,47.91
2023-05-21T04:22:45.210Z,48.11
2023-05-21T04:23:18.995Z,47.75
2023-05-21T04:23:57.666Z,47.93
2023-05-21T04:24:42.850Z,47.76
2023-05-21T04:25:31.328Z,47.78
2023-05-21T04:26:04.983Z,47.71
2023-05-21T04:26:42.596Z,48.12
2023-05-21T04:27:18.102Z,47.92
2023-05-21T04:27:51.018Z,47.69
2023-05-21T04:28:24.364Z,47.86
2023-05-21T04:28:59.649Z,47.73
2023-05-21T04:29:32.078Z,47.68
2023-05-21T04:30:05.571Z,48.07
2023-05-21T04:30:43.133Z,47.90
2023-05-21T04:31:15.540Z,47.63
2023-05-21T04:31:48.066Z,47.66
2023-05-21T04:32:23.164Z,48.03
2023-05-21T04:32:55.707Z,48.08
2023-05-21T04:33:28.876Z,47.85
2023-05-21T04:34:01.275Z,47.83
2023-05-21T04:34:36.753Z,48.03
2023-05-21T04:35:10.304Z,48.05
2023-05-21T04:35:44.759Z,47.96
2023-05-21T04:36:20.413Z,47.86
2023-05-21T04:36:52.908Z,47.98
2023-05-21T04:37:25.770Z,47.60
2023-05-21T04:38:02.291Z,48.02
2023-05-21T04:38:37.201Z,48.08
2023-05-21T04:39:12.453Z,47.98
2023-05-21T04:39:48.294Z,48.06
2023-05-21T04:40:24.507Z,47.53
2023-05-21T04:40:58.949Z,47.98
2023-05-21T04:41:33.967Z,47.78
2023-05-21T04:42:11.225Z,47.50
2023-05-21T04:42:44.084Z,47.89
2023-05-21T04:43:25.789Z,47.73
2023-05-21T04:43:59.161Z,47.51
2023-05-21T04:44:35.070Z,47.45
2023-05-21T04:45:12.649Z,47.99
2023-05-21T04:45:48.073Z,47.96
2023-05-21T04:46:20.651Z,47.84
2023-05-21T04:46:55.648Z,47.85
2023-05-21T04:47:30.804Z,47.84
2023-05-21T04:48:03.920Z,48.00
2023-05-21T04:48:39.285Z,47.79
2023-05-21T04:49:14.536Z,47.59
2023-05-21T04:49:47.194Z,47.58
2023-05-21T04:50:23.470Z,47.55
2023-05-21T04:50:56.348Z,47.63
2023-05-21T04:51:28.877Z,47.76
2023-05-21T04:52:04.044Z,47.93
2023-05-21T04:52:37.150Z,47.79
2023-05-21T04:53:10.076Z,47.78
2023-05-21T04:53:45.116Z,47.86
2023-05-21T04:54:17.486Z,47.78
2023-05-21T04:54:50.149Z,47.93
2023-05-21T04:55:25.308Z,47.60
2023-05-21T04:55:59.610Z,47.56
2023-05-21T04:56:32.111Z,47.82
2023-05-21T04:57:07.371Z,47.97
2023-05-21T04:57:42.571Z,47.62
2023-05-21T04:58:17.955Z,47.63
2023-05-21T04:58:54.511Z,48.02
2023-05-21T04:59:26.893Z,47.69
2023-05-21T04:59:59.261Z,47.85
2023-05-21T05:00:37.909Z,47.73
2023-05-21T05:01:12.594Z,48.06
2023-05-21T05:01:45.030Z,47.86
2023-05-21T05:02:20.012Z,48.04
2023-05-21T05:02:52.430Z,48.03
2023-05-21T05:03:25.047Z,47.69
2023-05-21T05:04:00.341Z,47.65
2023-05-21T05:04:33.441Z,47.73
2023-05-21T05:05:07.211Z,48.06
2023-05-21T05:05:42.486Z,47.85
2023-05-21T05:06:14.928Z,47.85
2023-05-21T05:06:47.572Z,47.97
2023-05-21T05:07:23.306Z,47.85
2023-05-21T05:07:56.484Z,48.12
2023-05-21T05:08:28.897Z,48.09
2023-05-21T05:09:04.749Z,47.85
2023-05-21T05:09:37.161Z,47.78
2023-05-21T05:10:09.891Z,47.88
2023-05-21T05:10:44.862Z,47.67
2023-05-21T05:11:17.442Z,47.67
2023-05-21T05:11:49.869Z,47.71
2023-05-21T05:12:24.885Z,48.20
2023-05-21T05:13:00.138Z,47.66
2023-05-21T05:13:34.770Z,48.12
2023-05-21T05:14:10.099Z,47.93
2023-05-21T05:14:42.550Z,47.88
2023-05-21T05:15:15.147Z,47.66
2023-05-21T05:15:51.527Z,48.10
2023-05-21T05:16:26.574Z,47.89
2023-05-21T05:17:04.636Z,47.67
2023-05-21T05:17:37.082Z,47.78
2023-05-21T05:18:09.666Z,47.75
2023-05-21T05:18:44.736Z,47.78
2023-05-21T05:19:17.829Z,47.73
2023-05-21T05:19:50.302Z,47.70
2023-05-21T05:20:25.595Z,47.58
2023-05-21T05:20:58.051Z,47.99
2023-05-21T05:21:33.440Z,47.73
2023-05-21T05:22:06.006Z,47.80
2023-05-21T05:22:38.946Z,47.76
2023-05-21T05:23:14.978Z,47.55
2023-05-21T05:23:47.508Z,47.89
2023-05-21T05:24:19.944Z,47.92
2023-05-21T05:24:55.354Z,47.73
2023-05-21T05:25:27.738Z,47.89
2023-05-21T05:26:02.712Z,47.98
2023-05-21T05:26:35.116Z,47.51
2023-05-21T05:27:07.538Z,47.85
2023-05-21T05:27:42.530Z,47.68
2023-05-21T05:28:17.580Z,47.70
2023-05-21T05:28:50.021Z,47.95
2023-05-21T05:29:25.110Z,47.61
2023-05-21T05:29:58.073Z,48.02
2023-05-21T05:30:30.606Z,47.78
2023-05-21T05:31:18.144Z,47.59
2023-05-21T05:31:50.861Z,47.95
2023-05-21T05:32:23.260Z,47.90
2023-05-21T05:32:58.426Z,47.97
2023-05-21T05:33:31.009Z,47.78
2023-05-21T05:34:06.104Z,48.05
2023-05-21T05:34:38.579Z,47.90
2023-05-21T05:35:11.322Z,47.88
2023-05-21T05:35:43.886Z,47.60
2023-05-21T05:36:19.116Z,48.02
2023-05-21T05:36:52.043Z,47.91
2023-05-21T05:37:24.455Z,47.97
2023-05-21T05:37:59.745Z,47.75
2023-05-21T05:38:32.238Z,47.61
2023-05-21T05:39:04.903Z,47.90
2023-05-21T05:39:39.869Z,47.52
2023-05-21T05:40:12.707Z,47.82
2023-05-21T05:40:45.239Z,47.71
2023-05-21T05:41:20.230Z,47.37
2023-05-21T05:41:54.331Z,47.55
2023-05-21T05:42:27.078Z,47.80
2023-05-21T05:43:02.546Z,47.61
2023-05-21T05:43:37.517Z,47.61
2023-05-21T05:44:10.990Z,47.58
2023-05-21T05:44:46.193Z,47.59
2023-05-21T05:45:18.746Z,47.35
2023-05-21T05:45:51.433Z,47.30
2023-05-21T05:46:27.419Z,47.34
2023-05-21T05:46:59.861Z,47.37
2023-05-21T05:47:33.580Z,47.70
2023-05-21T05:48:09.997Z,47.77
2023-05-21T05:48:42.491Z,47.78
2023-05-21T05:49:15.223Z,47.57
2023-05-21T05:49:50.548Z,47.51
2023-05-21T05:50:23.056Z,47.56
2023-05-21T05:50:56.262Z,47.13
2023-05-21T05:51:33.570Z,47.27
2023-05-21T05:52:06.929Z,47.32
2023-05-21T05:52:39.342Z,47.35
2023-05-21T05:53:15.176Z,47.01
2023-05-21T05:53:47.588Z,47.52
2023-05-21T05:54:20.008Z,47.16
2023-05-21T05:54:54.990Z,47.15
2023-05-21T05:55:27.386Z,46.90
2023-05-21T05:56:00.405Z,47.18
2023-05-21T05:56:36.023Z,47.43
2023-05-21T05:57:10.309Z,47.25
2023-05-21T05:57:45.228Z,47.14
2023-05-21T05:58:23.081Z,47.35
2023-05-21T05:59:05.185Z,46.97
2023-05-21T05:59:40.590Z,46.97
2023-05-21T06:00:17.587Z,47.07
2023-05-21T06:00:54.333Z,47.30
2023-05-21T06:01:27.272Z,47.20
2023-05-21T06:02:02.328Z,46.92
2023-05-21T06:02:34.832Z,46.87
2023-05-21T06:03:07.678Z,47.02
2023-05-21T06:03:40.396Z,47.16
2023-05-21T06:04:20.439Z,46.76
2023-05-21T06:04:53.744Z,47.01
2023-05-21T06:05:26.210Z,47.01
2023-05-21T06:06:01.261Z,47.21
2023-05-21T06:06:35.360Z,47.14
2023-05-21T06:07:08.550Z,46.89
2023-05-21T06:07:44.272Z,46.61
2023-05-21T06:08:16.868Z,47.09
2023-05-21T06:08:49.262Z,46.41
2023-05-21T06:09:24.393Z,46.79
2023-05-21T06:09:56.786Z,46.63
2023-05-21T06:10:29.491Z,46.52
2023-05-21T06:11:04.556Z,46.61
2023-05-21T06:11:36.932Z,46.50
2023-05-21T06:12:12.304Z,46.51
2023-05-21T06:12:49.825Z,46.73
2023-05-21T06:13:22.341Z,46.56
2023-05-21T06:13:54.709Z,46.92
2023-05-21T06:14:32.853Z,46.79
2023-05-21T06:15:06.425Z,46.92
2023-05-21T06:15:43.436Z,46.70
2023-05-21T06:16:18.721Z,46.65
2023-05-21T06:16:51.155Z,46.62
2023-05-21T06:17:23.855Z,46.70
2023-05-21T06:18:00.059Z,46.69
2023-05-21T06:18:32.466Z,46.43
2023-05-21T06:19:05.548Z,46.60
2023-05-21T06:19:40.678Z,46.60
2023-05-21T06:20:13.138Z,46.83
2023-05-21T06:20:45.667Z,46.70
2023-05-21T06:21:20.738Z,46.48
2023-05-21T06:21:53.120Z,46.65
2023-05-21T06:22:25.746Z,46.65
2023-05-21T06:23:01.241Z,46.87
2023-05-21T06:23:35.699Z,46.50
2023-05-21T06:24:08.163Z,46.64
2023-05-21T06:24:43.311Z,46.93
2023-05-21T06:25:16.427Z,46.78
2023-05-21T06:25:48.966Z,46.84
2023-05-21T06:26:24.414Z,46.58
2023-05-21T06:26:57.762Z,46.87
2023-05-21T06:27:30.966Z,46.52
2023-05-21T06:28:07.742Z,46.38
2023-05-21T06:28:40.946Z,46.69
2023-05-21T06:29:15.650Z,46.34
2023-05-21T06:29:53.577Z,46.60
2023-05-21T06:30:26.151Z,46.64
2023-05-21T06:30:58.946Z,46.33
2023-05-21T06:31:36.101Z,46.44
2023-05-21T06:32:09.054Z,46.54
2023-05-21T06:32:42.131Z,46.36
2023-05-21T06:33:17.681Z,46.40
2023-05-21T06:33:50.340Z,46.53
2023-05-21T06:34:22.817Z,46.46
2023-05-21T06:34:57.813Z,46.40
2023-05-21T06:35:30.327Z,46.17
2023-05-21T06:36:02.927Z,46.41
2023-05-21T06:36:38.325Z,46.32
2023-05-21T06:37:10.810Z,46.42
2023-05-21T06:37:43.413Z,46.60
2023-05-21T06:38:18.386Z,46.37
2023-05-21T06:38:50.797Z,46.48
2023-05-21T06:39:24.788Z,46.70
2023-05-21T06:39:57.210Z,46.48
2023-05-21T06:40:32.268Z,46.43
2023-05-21T06:41:05.680Z,46.29
2023-05-21T06:41:52.335Z,46.58
2023-05-21T06:42:52.180Z,46.53
2023-05-21T06:43:36.451Z,46.63
2023-05-21T06:44:37.346Z,46.62
2023-05-21T06:45:38.621Z,46.37
2023-05-21T06:46:30.176Z,46.60
2023-05-21T06:47:02.851Z,46.57
2023-05-21T06:47:36.204Z,46.51
2023-05-21T06:48:12.463Z,46.63
2023-05-21T06:48:45.144Z,46.64
2023-05-21T06:49:20.207Z,46.36
2023-05-21T06:49:52.774Z,46.43
2023-05-21T06:50:27.805Z,46.24
2023-05-21T06:51:00.315Z,46.42
2023-05-21T06:51:32.732Z,46.28
2023-05-21T06:52:08.532Z,46.26
2023-05-21T06:52:41.481Z,46.29
2023-05-21T06:53:16.584Z,46.19
2023-05-21T06:53:53.264Z,46.41
2023-05-21T06:54:26.991Z,46.24
2023-05-21T06:55:02.200Z,46.24
2023-05-21T06:55:45.160Z,46.20
2023-05-21T06:56:27.653Z,46.23
2023-05-21T06:57:03.501Z,46.21
2023-05-21T06:57:38.208Z,46.65
2023-05-21T06:58:10.723Z,46.15
2023-05-21T06:58:45.774Z,46.45
2023-05-21T06:59:18.177Z,46.59
2023-05-21T06:59:54.368Z,46.24
2023-05-21T07:00:27.262Z,46.39
2023-05-21T07:01:02.607Z,46.24
2023-05-21T07:01:38.252Z,46.34
2023-05-21T07:02:10.894Z,46.14
2023-05-21T07:02:46.677Z,46.65
2023-05-21T07:03:20.023Z,46.36
2023-05-21T07:03:53.172Z,46.19
2023-05-21T07:04:28.235Z,46.46
2023-05-21T07:05:00.622Z,46.36
2023-05-21T07:05:32.966Z,46.40
2023-05-21T07:06:08.081Z,46.17
2023-05-21T07:06:41.096Z,46.36
2023-05-21T07:07:14.441Z,46.23
2023-05-21T07:07:49.469Z,46.36
2023-05-21T07:08:22.180Z,46.15
2023-05-21T07:08:54.593Z,46.14
2023-05-21T07:09:29.774Z,46.11
2023-05-21T07:10:02.429Z,46.50
2023-05-21T07:10:37.536Z,46.43
2023-05-21T07:11:10.586Z,46.13
2023-05-21T07:11:43.563Z,46.58
2023-05-21T07:12:19.094Z,46.46
2023-05-21T07:12:51.556Z,46.36
2023-05-21T07:13:24.762Z,46.18
2023-05-21T07:14:01.927Z,46.58
2023-05-21T07:14:36.351Z,46.41
2023-05-21T07:15:09.642Z,46.41
2023-05-21T07:15:44.778Z,46.24
2023-05-21T07:16:19.859Z,46.32
2023-05-21T07:16:56.760Z,46.73
2023-05-21T07:17:29.249Z,46.50
2023-05-21T07:18:04.392Z,46.37
2023-05-21T07:18:36.847Z,46.18
2023-05-21T07:19:09.355Z,46.28
2023-05-21T07:19:44.483Z,46.17
2023-05-21T07:20:17.184Z,46.45
2023-05-21T07:20:53.116Z,46.50
2023-05-21T07:21:28.177Z,46.24
2023-05-21T07:22:00.817Z,46.75
2023-05-21T07:22:33.254Z,46.35
2023-05-21T07:23:08.331Z,46.19
2023-05-21T07:23:41.217Z,46.21
2023-05-21T07:24:13.929Z,46.58
2023-05-21T07:24:48.900Z,46.60